Time;durP1;ratioP1;P1;durP2;ratioP2;P2;SDS_P1;SDS_P2;PMS_P1;PMS_P2;Temp;Humidity;BMP_temperature;BMP_pressure;BME280_temperature;BME280_humidity;BME280_pressure;Samples;Min_cycle;Max_cycle;Signal;HPM_P1;HPM_P2
2021/11/12 00:02:11;;;;;;;10.70;9.30;;;7.70;99.90;;;;;;5108358;28;20457;-72
2021/11/12 00:12:29;;;;;;;10.20;9.23;;;7.50;99.90;;;;;;5028107;28;20429;-72
2021/11/12 00:14:55;;;;;;;11.00;9.90;;;7.50;99.90;;;;;;5028979;28;20396;-72
2021/11/12 00:17:26;;;;;;;13.70;10.60;;;7.50;99.90;;;;;;5028918;28;20497;-72
2021/11/12 00:19:52;;;;;;;10.20;9.20;;;7.50;99.90;;;;;;5030733;28;20400;-72
2021/11/12 00:22:20;;;;;;;9.13;8.33;;;7.50;99.90;;;;;;5048662;28;20876;-72
2021/11/12 00:24:46;;;;;;;12.67;9.30;;;7.40;99.90;;;;;;5038409;28;20423;-71
2021/11/12 00:27:11;;;;;;;10.63;9.63;;;7.40;99.90;;;;;;5029137;28;20426;-72
2021/11/12 00:29:45;;;;;;;11.03;10.03;;;7.40;99.90;;;;;;5033001;28;20160;-72
2021/11/12 00:37:45;;;;;;;12.47;11.17;;;7.30;99.90;;;;;;5065520;28;20605;-71
2021/11/12 00:45:47;;;;;;;14.57;12.53;;;7.20;99.90;;;;;;5060744;28;20564;-71
2021/11/12 00:51:00;;;;;;;14.07;11.73;;;7.10;99.90;;;;;;5058251;28;20533;-70
2021/11/12 00:56:02;;;;;;;11.93;10.73;;;7.00;99.90;;;;;;5057421;28;20651;-70
2021/11/12 00:58:28;;;;;;;13.30;12.00;;;7.00;99.90;;;;;;5048809;28;20429;-70
2021/11/12 01:00:53;;;;;;;12.23;10.87;;;6.90;99.90;;;;;;5034158;28;20541;-71
2021/11/12 01:03:19;;;;;;;12.47;11.17;;;6.90;99.90;;;;;;5029016;28;20177;-70
2021/11/12 01:05:45;;;;;;;11.40;10.20;;;6.90;99.90;;;;;;5028812;28;20169;-70
2021/11/12 01:08:10;;;;;;;12.37;10.63;;;6.80;99.90;;;;;;5028554;28;20169;-70
2021/11/12 01:10:36;;;;;;;14.30;12.13;;;6.80;99.90;;;;;;5029249;28;20169;-71
2021/11/12 01:13:02;;;;;;;16.00;12.33;;;6.80;99.90;;;;;;5028657;28;20169;-70
2021/11/12 01:15:28;;;;;;;14.27;12.87;;;6.80;99.90;;;;;;5029727;28;20192;-71
2021/11/12 01:17:53;;;;;;;19.13;14.33;;;6.80;99.90;;;;;;5029468;28;20438;-71
2021/11/12 01:20:20;;;;;;;17.07;14.07;;;6.90;99.90;;;;;;5028393;28;20416;-71
2021/11/12 01:22:47;;;;;;;15.37;13.77;;;6.90;99.90;;;;;;5028967;28;20173;-71
2021/11/12 01:25:16;;;;;;;15.20;13.63;;;6.90;99.90;;;;;;5028291;28;20420;-71
2021/11/12 01:27:42;;;;;;;17.40;14.83;;;6.90;99.90;;;;;;5028689;28;20400;-71
2021/11/12 01:30:09;;;;;;;16.00;14.30;;;6.90;99.90;;;;;;5027843;28;20920;-71
2021/11/12 01:32:34;;;;;;;15.90;14.20;;;6.90;99.90;;;;;;5029485;28;20713;-71
2021/11/12 01:35:01;;;;;;;16.07;14.37;;;6.90;99.90;;;;;;5028588;28;20538;-71
2021/11/12 01:37:29;;;;;;;17.60;15.73;;;6.80;99.90;;;;;;5028377;28;20638;-71
2021/11/12 01:39:59;;;;;;;15.80;14.20;;;6.80;99.90;;;;;;5028379;28;20487;-71
2021/11/12 01:42:47;;;;;;;19.53;16.67;;;6.80;99.90;;;;;;5028011;28;20431;-71
2021/11/12 01:45:12;;;;;;;18.57;15.23;;;6.80;99.90;;;;;;5027496;28;20475;-71
2021/11/12 01:47:59;;;;;;;16.70;14.93;;;6.70;99.90;;;;;;5028731;28;20479;-71
2021/11/12 01:50:26;;;;;;;19.20;15.50;;;6.80;99.90;;;;;;5040227;28;20267;-71
2021/11/12 01:52:56;;;;;;;18.20;16.23;;;6.70;99.90;;;;;;5028251;28;20412;-71
2021/11/12 02:01:00;;;;;;;17.87;15.70;;;6.60;99.90;;;;;;5064021;28;20520;-71
2021/11/12 02:03:26;;;;;;;22.47;15.77;;;6.60;99.90;;;;;;5064134;28;20984;-71
2021/11/12 02:05:52;;;;;;;22.93;17.57;;;6.60;99.90;;;;;;5049107;28;20424;-71
2021/11/12 02:08:18;;;;;;;19.70;17.60;;;6.50;99.90;;;;;;5053414;28;20640;-71
2021/11/12 02:10:44;;;;;;;19.70;15.87;;;6.50;99.90;;;;;;5061195;28;20414;-71
2021/11/12 02:13:16;;;;;;;22.20;17.63;;;6.50;99.90;;;;;;5049244;28;20490;-71
2021/11/12 02:15:42;;;;;;;20.30;16.50;;;6.50;99.90;;;;;;5057936;28;20178;-71
2021/11/12 02:18:15;;;;;;;18.47;16.57;;;6.50;99.90;;;;;;5068605;28;20406;-71
2021/11/12 02:21:02;;;;;;;24.30;17.13;;;6.50;99.90;;;;;;5068489;28;21033;-71
2021/11/12 02:23:35;;;;;;;21.47;17.23;;;6.50;99.90;;;;;;5037276;28;20407;-72
2021/11/12 02:26:01;;;;;;;20.70;16.60;;;6.50;99.90;;;;;;5055909;28;20414;-71
2021/11/12 02:28:27;;;;;;;20.87;17.10;;;6.50;99.90;;;;;;5049181;28;20468;-71
2021/11/12 02:30:53;;;;;;;21.67;17.97;;;6.40;99.90;;;;;;5050143;28;20860;-71
2021/11/12 02:33:22;;;;;;;20.80;18.13;;;6.50;99.90;;;;;;5062124;28;20449;-71
2021/11/12 02:38:46;;;;;;;22.93;18.97;;;6.50;99.90;;;;;;5066904;28;20889;-72
2021/11/12 02:41:13;;;;;;;21.30;18.23;;;6.50;99.90;;;;;;5048941;28;20402;-72
2021/11/12 02:43:41;;;;;;;20.83;17.47;;;6.40;99.90;;;;;;5048978;28;20416;-71
2021/11/12 02:46:11;;;;;;;21.07;18.30;;;6.50;99.90;;;;;;5048941;28;20415;-71
2021/11/12 02:48:40;;;;;;;20.27;17.70;;;6.40;99.90;;;;;;5049149;28;20375;-71
2021/11/12 02:51:08;;;;;;;21.90;18.97;;;6.40;99.90;;;;;;5048330;28;20453;-71
2021/11/12 02:53:34;;;;;;;21.83;19.47;;;6.40;99.90;;;;;;5047485;28;20387;-72
2021/11/12 02:56:03;;;;;;;22.87;20.13;;;6.40;99.90;;;;;;5033038;28;20452;-71
2021/11/12 02:58:30;;;;;;;23.97;18.93;;;6.40;99.90;;;;;;5043251;28;20199;-71
2021/11/12 03:00:57;;;;;;;21.60;17.77;;;6.40;99.90;;;;;;5047883;28;20434;-71
2021/11/12 03:03:23;;;;;;;24.97;20.60;;;6.40;99.90;;;;;;5048876;28;20391;-71
2021/11/12 03:05:49;;;;;;;22.17;19.10;;;6.40;99.90;;;;;;5036481;28;20415;-71
2021/11/12 03:08:14;;;;;;;23.93;18.77;;;6.40;99.90;;;;;;5028820;28;20255;-72
2021/11/12 03:10:40;;;;;;;22.67;19.43;;;6.40;99.90;;;;;;5036453;28;20173;-72
2021/11/12 03:13:06;;;;;;;24.93;19.50;;;6.40;99.90;;;;;;5048561;28;20191;-72
2021/11/12 03:15:33;;;;;;;23.23;19.47;;;6.40;99.90;;;;;;5048575;28;20244;-71
2021/11/12 03:17:59;;;;;;;24.07;19.40;;;6.40;99.90;;;;;;5048411;28;20450;-71
2021/11/12 03:20:26;;;;;;;24.40;21.50;;;6.40;99.90;;;;;;5048333;28;20426;-71
2021/11/12 03:22:56;;;;;;;24.40;20.73;;;6.40;99.90;;;;;;5048001;28;20424;-71
2021/11/12 03:25:32;;;;;;;25.23;20.83;;;6.40;99.90;;;;;;5040315;28;20409;-71
2021/11/12 03:28:08;;;;;;;24.80;19.83;;;6.40;99.90;;;;;;5048200;28;20435;-72
2021/11/12 03:49:36;;;;;;;24.20;20.90;;;6.30;99.90;;;;;;5046198;28;20422;-71
2021/11/12 03:50:13;;;;;;;25.13;20.23;;;6.30;99.90;;;;;;5035118;28;20491;-77
2021/11/12 04:17:36;;;;;;;26.80;19.13;;;6.40;99.90;;;;;;5069005;28;20490;-71
2021/11/12 04:20:22;;;;;;;23.60;18.83;;;6.50;99.90;;;;;;5069301;28;20722;-71
2021/11/12 04:49:16;;;;;;;22.97;18.70;;;6.80;99.90;;;;;;5035187;28;20462;-71
2021/11/12 05:09:59;;;;;;;19.30;16.60;;;7.10;99.90;;;;;;5071294;28;20422;-71
2021/11/12 05:12:39;;;;;;;18.53;16.50;;;7.10;99.90;;;;;;5081985;28;20456;-71
2021/11/12 05:26:27;;;;;;;16.03;14.33;;;7.00;99.90;;;;;;5068368;28;20910;-72
2021/11/12 05:45:30;;;;;;;15.77;14.17;;;6.60;99.90;;;;;;5082148;28;20438;-72
2021/11/12 05:56:12;;;;;;;16.60;14.87;;;6.50;99.90;;;;;;5067917;28;20427;-71
2021/11/12 05:58:38;;;;;;;16.27;14.13;;;6.50;99.90;;;;;;5068297;28;20466;-71
2021/11/12 06:01:04;;;;;;;16.33;14.73;;;6.50;99.90;;;;;;5069263;28;20175;-70
2021/11/12 06:03:30;;;;;;;16.77;14.40;;;6.40;99.90;;;;;;5068437;28;20238;-71
2021/11/12 06:05:55;;;;;;;17.20;15.60;;;6.40;99.90;;;;;;5069890;28;20415;-71
2021/11/12 06:08:21;;;;;;;18.43;16.53;;;6.30;99.90;;;;;;5062400;28;20425;-70
2021/11/12 06:10:47;;;;;;;16.27;14.70;;;6.30;99.90;;;;;;5074724;28;20226;-71
2021/11/12 06:13:13;;;;;;;16.77;15.17;;;6.30;99.90;;;;;;5060571;28;20500;-70
2021/11/12 06:15:39;;;;;;;18.47;16.20;;;6.20;99.90;;;;;;5068470;28;20617;-70
2021/11/12 06:18:06;;;;;;;16.13;14.53;;;6.20;99.90;;;;;;5054810;28;20442;-70
2021/11/12 06:20:32;;;;;;;18.73;16.70;;;6.20;99.90;;;;;;5059675;28;20425;-70
2021/11/12 06:22:58;;;;;;;16.13;14.43;;;6.20;99.90;;;;;;5069513;28;20490;-70
2021/11/12 06:25:24;;;;;;;19.23;16.77;;;6.30;99.90;;;;;;5074544;28;20881;-70
2021/11/12 06:27:50;;;;;;;19.43;17.53;;;6.30;99.90;;;;;;5074277;28;20484;-70
2021/11/12 06:30:15;;;;;;;19.37;17.37;;;6.20;99.90;;;;;;5060970;28;20168;-70
2021/11/12 06:32:41;;;;;;;18.70;16.77;;;6.20;99.90;;;;;;5073260;28;20567;-71
2021/11/12 06:35:08;;;;;;;20.50;18.47;;;6.20;99.90;;;;;;5066549;28;20175;-71
2021/11/12 06:37:33;;;;;;;19.43;17.33;;;6.30;99.90;;;;;;5072945;28;20409;-70
2021/11/12 06:40:01;;;;;;;20.00;17.90;;;6.30;99.90;;;;;;5060288;28;20414;-70
2021/11/12 06:42:29;;;;;;;19.00;17.07;;;6.30;99.90;;;;;;5066690;28;20173;-71
2021/11/12 06:50:26;;;;;;;20.40;18.30;;;6.30;99.90;;;;;;5063054;28;20457;-70
2021/11/12 06:52:52;;;;;;;20.53;18.33;;;6.30;99.90;;;;;;5065338;28;20973;-70
2021/11/12 06:55:19;;;;;;;19.73;16.50;;;6.30;99.90;;;;;;5069038;28;20483;-71
2021/11/12 06:57:46;;;;;;;20.63;18.43;;;6.20;99.90;;;;;;5070707;28;20405;-70
2021/11/12 07:00:15;;;;;;;19.63;17.53;;;6.20;99.90;;;;;;5060360;28;20793;-71
2021/11/12 07:02:41;;;;;;;20.90;17.87;;;6.20;99.90;;;;;;5071484;28;20538;-71
2021/11/12 07:05:08;;;;;;;20.33;18.23;;;6.20;99.90;;;;;;5055238;28;20934;-71
2021/11/12 07:07:34;;;;;;;25.03;18.13;;;6.20;99.90;;;;;;5057040;28;20441;-70
2021/11/12 07:10:00;;;;;;;22.43;19.30;;;6.20;99.90;;;;;;5064937;28;20438;-71
2021/11/12 07:12:25;;;;;;;21.83;18.57;;;6.30;99.90;;;;;;5065057;28;20458;-71
2021/11/12 07:14:51;;;;;;;20.57;18.07;;;6.30;99.90;;;;;;5050577;28;20248;-71
2021/11/12 07:17:17;;;;;;;19.93;17.87;;;6.30;99.90;;;;;;5056232;28;20186;-71
2021/11/12 07:19:43;;;;;;;20.83;17.50;;;6.20;99.90;;;;;;5073805;28;20187;-70
2021/11/12 07:22:09;;;;;;;19.80;17.70;;;6.30;99.90;;;;;;5075406;28;20429;-71
2021/11/12 07:24:35;;;;;;;20.50;18.30;;;6.30;99.90;;;;;;5081348;28;20436;-71
2021/11/12 07:27:01;;;;;;;20.27;18.17;;;6.30;99.90;;;;;;5061637;28;20512;-70
2021/11/12 07:29:29;;;;;;;23.30;19.50;;;6.30;99.90;;;;;;5060115;28;20521;-70
2021/11/12 07:31:56;;;;;;;20.47;18.27;;;6.30;99.90;;;;;;5071681;28;20199;-70
2021/11/12 07:34:25;;;;;;;19.87;17.77;;;6.30;99.90;;;;;;5073244;28;20483;-71
2021/11/12 07:36:53;;;;;;;19.33;17.03;;;6.30;99.90;;;;;;5053281;28;20769;-70
2021/11/12 07:39:25;;;;;;;19.67;17.30;;;6.20;99.90;;;;;;5060379;28;20410;-70
2021/11/12 07:42:11;;;;;;;19.97;17.83;;;6.30;99.90;;;;;;5072608;28;20409;-70
2021/11/12 07:47:22;;;;;;;18.47;16.63;;;6.20;99.90;;;;;;5056865;28;20434;-70
2021/11/12 07:49:52;;;;;;;21.80;18.37;;;6.30;99.90;;;;;;5053065;28;20403;-70
2021/11/12 07:52:21;;;;;;;20.50;18.17;;;6.30;99.90;;;;;;5072646;28;20211;-71
2021/11/12 07:54:47;;;;;;;20.23;17.93;;;6.40;99.90;;;;;;5071768;28;20398;-70
2021/11/12 07:57:13;;;;;;;22.13;19.80;;;6.40;99.90;;;;;;5072185;28;20421;-71
2021/11/12 07:59:39;;;;;;;19.63;17.57;;;6.40;99.90;;;;;;5066472;28;20429;-70
2021/11/12 08:02:06;;;;;;;21.57;19.33;;;6.40;99.90;;;;;;5064273;28;20183;-71
2021/11/12 08:04:33;;;;;;;21.53;18.27;;;6.40;99.90;;;;;;5062123;28;20448;-71
2021/11/12 08:07:00;;;;;;;21.20;18.63;;;6.40;99.90;;;;;;5056317;28;20477;-71
2021/11/12 08:09:31;;;;;;;20.50;17.90;;;6.40;99.90;;;;;;5059201;28;20430;-71
2021/11/12 08:12:01;;;;;;;21.43;17.80;;;6.50;99.90;;;;;;5069423;28;20457;-70
2021/11/12 08:17:17;;;;;;;22.10;18.70;;;6.40;99.90;;;;;;5068419;28;20547;-70
2021/11/12 08:20:07;;;;;;;21.90;19.60;;;6.40;99.90;;;;;;5060244;28;20417;-71
2021/11/12 08:22:33;;;;;;;22.07;19.77;;;6.40;99.90;;;;;;5066462;28;20414;-69
2021/11/12 08:27:58;;;;;;;24.70;20.90;;;6.30;99.90;;;;;;5062869;28;20410;-70
2021/11/12 08:41:13;;;;;;;21.67;18.67;;;6.60;99.90;;;;;;5050324;28;20518;-70
2021/11/12 08:43:44;;;;;;;21.90;19.50;;;6.60;99.90;;;;;;5049185;28;20493;-72
2021/11/12 08:49:02;;;;;;;22.80;19.10;;;6.60;99.90;;;;;;5048199;28;20521;-72
2021/11/12 08:51:33;;;;;;;21.63;17.60;;;6.70;99.90;;;;;;5044493;28;20955;-70
2021/11/12 08:54:01;;;;;;;20.40;18.13;;;6.60;99.90;;;;;;5041777;28;20466;-70
2021/11/12 08:56:28;;;;;;;23.33;20.80;;;6.60;99.90;;;;;;5038625;28;20462;-71
2021/11/12 08:58:53;;;;;;;22.40;20.00;;;6.60;99.90;;;;;;5044126;28;20956;-71
2021/11/12 09:01:20;;;;;;;20.17;17.63;;;6.70;99.90;;;;;;5042850;28;20422;-71
2021/11/12 09:03:47;;;;;;;22.60;19.00;;;6.60;99.90;;;;;;5034538;28;20296;-72
2021/11/12 09:06:13;;;;;;;20.87;18.13;;;6.70;99.90;;;;;;5044183;28;20430;-71
2021/11/12 09:08:39;;;;;;;22.23;19.87;;;6.70;99.90;;;;;;5046333;28;20490;-70
2021/11/12 09:11:06;;;;;;;25.10;19.70;;;6.70;99.90;;;;;;5037192;28;20522;-70
2021/11/12 09:13:40;;;;;;;21.80;19.60;;;6.70;99.90;;;;;;5051088;28;20428;-71
2021/11/12 09:16:10;;;;;;;20.50;18.40;;;6.80;99.90;;;;;;5054002;28;20469;-71
2021/11/12 09:18:37;;;;;;;22.37;18.70;;;6.80;99.90;;;;;;5046793;28;20419;-71
2021/11/12 09:21:03;;;;;;;20.70;18.60;;;6.80;99.90;;;;;;5052426;28;20957;-71
2021/11/12 09:23:29;;;;;;;21.20;18.10;;;6.90;99.90;;;;;;5067615;28;20393;-71
2021/11/12 09:25:54;;;;;;;20.03;17.67;;;6.90;99.90;;;;;;5055246;28;20286;-74
2021/11/12 09:28:20;;;;;;;17.60;15.80;;;7.00;99.90;;;;;;5045590;28;20263;-71
2021/11/12 09:30:46;;;;;;;22.17;19.87;;;7.10;99.90;;;;;;5058458;28;20182;-72
2021/11/12 09:33:12;;;;;;;22.77;19.07;;;7.20;99.90;;;;;;5051944;28;20172;-71
2021/11/12 09:35:38;;;;;;;19.47;17.47;;;7.20;99.90;;;;;;5047830;28;20419;-73
2021/11/12 09:38:04;;;;;;;22.27;19.17;;;7.20;99.90;;;;;;5046467;28;20180;-72
2021/11/12 09:40:30;;;;;;;20.57;18.43;;;7.20;99.90;;;;;;5047303;28;20676;-72
2021/11/12 09:42:57;;;;;;;23.27;19.93;;;7.30;99.90;;;;;;5047966;28;20934;-71
2021/11/12 09:45:23;;;;;;;22.40;20.03;;;7.30;99.90;;;;;;5055303;28;20457;-72
2021/11/12 09:47:52;;;;;;;23.27;20.40;;;7.40;99.90;;;;;;5046094;28;20419;-73
2021/11/12 09:50:22;;;;;;;21.37;19.17;;;7.50;99.90;;;;;;5047819;28;20313;-72
2021/11/12 09:52:49;;;;;;;23.50;19.60;;;7.50;99.90;;;;;;5033552;28;20433;-71
2021/11/12 09:55:15;;;;;;;24.07;21.47;;;7.50;99.90;;;;;;5036154;28;20493;-72
2021/11/12 09:57:41;;;;;;;25.70;21.10;;;7.60;99.90;;;;;;5034392;28;20455;-72
2021/11/12 10:00:11;;;;;;;25.37;21.07;;;7.50;99.90;;;;;;5039030;28;20465;-71
2021/11/12 10:02:45;;;;;;;25.40;22.10;;;7.30;99.90;;;;;;5019057;28;20489;-71
2021/11/12 10:05:16;;;;;;;22.93;19.53;;;7.30;99.90;;;;;;5022090;28;20412;-71
2021/11/12 10:07:42;;;;;;;24.67;19.73;;;7.30;99.90;;;;;;5032496;28;20753;-71
2021/11/12 10:10:13;;;;;;;22.67;20.20;;;7.40;99.90;;;;;;5033933;28;20419;-71
2021/11/12 10:17:53;;;;;;;23.87;20.50;;;7.40;99.90;;;;;;5045295;28;20526;-71
2021/11/12 10:20:21;;;;;;;22.43;20.03;;;7.50;99.90;;;;;;5041447;28;20497;-71
2021/11/12 10:22:49;;;;;;;26.23;20.77;;;7.60;99.90;;;;;;5040122;28;20360;-70
2021/11/12 10:25:17;;;;;;;23.27;20.77;;;7.60;99.90;;;;;;5047142;28;20414;-72
2021/11/12 10:27:50;;;;;;;24.10;19.13;;;7.70;99.90;;;;;;5046906;28;20444;-72
2021/11/12 10:30:19;;;;;;;21.63;19.13;;;7.70;99.90;;;;;;5045354;28;20488;-72
2021/11/12 10:32:45;;;;;;;24.30;21.70;;;7.70;99.90;;;;;;5047247;28;20413;-72
2021/11/12 10:38:12;;;;;;;23.70;19.50;;;7.70;99.90;;;;;;5068964;28;20526;-72
2021/11/12 10:40:37;;;;;;;23.83;19.33;;;7.70;99.90;;;;;;5027904;28;20395;-71
2021/11/12 10:43:03;;;;;;;20.20;18.00;;;7.70;99.90;;;;;;5044478;28;20512;-72
2021/11/12 10:45:31;;;;;;;23.00;19.60;;;7.70;99.90;;;;;;5048400;28;20168;-74
2021/11/12 10:48:00;;;;;;;21.80;19.60;;;7.60;99.90;;;;;;5045623;28;20273;-74
2021/11/12 10:50:29;;;;;;;24.87;20.53;;;7.60;99.90;;;;;;5045589;28;20410;-70
2021/11/12 10:53:04;;;;;;;22.73;19.97;;;7.70;99.90;;;;;;5038850;28;20925;-72
2021/11/12 10:55:30;;;;;;;27.50;21.00;;;7.70;99.90;;;;;;5040446;28;20436;-73
2021/11/12 11:00:45;;;;;;;23.20;20.67;;;7.70;99.90;;;;;;5106988;27;20524;-71
2021/11/12 11:05:56;;;;;;;20.53;18.23;;;7.80;99.90;;;;;;5129051;27;20519;-69
2021/11/12 11:08:24;;;;;;;19.90;17.87;;;7.80;99.90;;;;;;5130637;27;20404;-71
2021/11/12 11:10:59;;;;;;;22.10;19.37;;;7.80;99.90;;;;;;5110617;28;20851;-71
2021/11/12 11:13:28;;;;;;;21.80;18.10;;;7.80;99.90;;;;;;5121566;28;20437;-70
2021/11/12 11:18:41;;;;;;;20.77;18.57;;;7.80;99.90;;;;;;5066172;28;20558;-71
2021/11/12 11:24:03;;;;;;;20.73;17.47;;;7.90;99.90;;;;;;5089139;28;20634;-71
2021/11/12 11:29:09;;;;;;;19.50;16.10;;;8.00;99.90;;;;;;5066416;28;20533;-71
2021/11/12 11:31:35;;;;;;;18.87;16.77;;;8.10;99.90;;;;;;5056237;28;20504;-71
2021/11/12 11:34:03;;;;;;;19.10;17.10;;;8.10;99.90;;;;;;5068409;28;20512;-72
2021/11/12 11:36:31;;;;;;;19.20;17.40;;;8.20;99.90;;;;;;5051181;28;20465;-71
2021/11/12 11:39:00;;;;;;;19.60;17.53;;;8.20;99.90;;;;;;5050186;28;20536;-74
2021/11/12 11:41:26;;;;;;;19.17;17.10;;;8.20;99.90;;;;;;5050530;28;20450;-74
2021/11/12 11:43:54;;;;;;;21.60;19.30;;;8.30;99.90;;;;;;5061432;28;20487;-72
2021/11/12 11:46:27;;;;;;;22.20;19.50;;;8.30;99.90;;;;;;5051761;28;20961;-72
2021/11/12 11:48:54;;;;;;;17.60;15.80;;;8.30;99.90;;;;;;5057880;28;20557;-72
2021/11/12 11:51:30;;;;;;;18.10;16.23;;;8.40;99.90;;;;;;5056050;28;20463;-71
2021/11/12 11:54:12;;;;;;;17.10;15.40;;;8.40;99.90;;;;;;5056737;28;20954;-72
2021/11/12 11:56:42;;;;;;;21.10;16.60;;;8.50;99.90;;;;;;5065612;28;20410;-73
2021/11/12 12:01:47;;;;;;;20.13;16.77;;;8.50;99.90;;;;;;5065891;28;20517;-70
2021/11/12 12:07:15;;;;;;;18.80;16.80;;;8.50;99.90;;;;;;5143551;27;20532;-72
2021/11/12 12:17:49;;;;;;;19.53;16.30;;;8.60;99.90;;;;;;5039754;28;21122;-71
2021/11/12 12:20:31;;;;;;;19.13;17.17;;;8.60;99.90;;;;;;5027770;28;20428;-71
2021/11/12 12:31:36;;;;;;;17.27;15.37;;;8.70;99.90;;;;;;5066443;28;20536;-72
2021/11/12 13:24:37;;;;;;;14.67;13.03;;;9.30;99.90;;;;;;5046474;28;20392;-71
2021/11/12 13:27:05;;;;;;;16.57;14.90;;;9.30;99.90;;;;;;5067958;28;21018;-72
2021/11/12 13:29:32;;;;;;;18.70;14.93;;;9.40;99.90;;;;;;5060175;28;20414;-72
2021/11/12 13:32:02;;;;;;;14.27;12.80;;;9.40;99.90;;;;;;5066722;28;20460;-71
2021/11/12 13:34:29;;;;;;;17.43;15.83;;;9.40;99.90;;;;;;5066162;28;20458;-71
2021/11/12 13:36:54;;;;;;;17.07;14.93;;;9.50;99.90;;;;;;5067603;28;20459;-74
2021/11/12 13:39:20;;;;;;;16.53;14.57;;;9.50;99.90;;;;;;5064602;28;20421;-72
2021/11/12 13:41:50;;;;;;;17.57;15.23;;;9.50;99.90;;;;;;5065869;28;20186;-70
2021/11/12 13:44:19;;;;;;;15.83;14.27;;;9.60;99.90;;;;;;5047879;28;20903;-70
2021/11/12 13:52:08;;;;;;;17.57;14.00;;;9.60;99.90;;;;;;5108494;27;20513;-71
2021/11/12 13:54:44;;;;;;;15.97;13.90;;;9.70;99.90;;;;;;5107750;28;20442;-71
2021/11/12 13:57:13;;;;;;;14.70;13.17;;;9.70;99.90;;;;;;5109491;28;20399;-70
2021/11/12 14:02:58;;;;;;;19.37;13.90;;;9.70;99.90;;;;;;5108397;27;20616;-71
2021/11/12 14:05:26;;;;;;;16.57;14.97;;;9.70;99.90;;;;;;5101760;28;20416;-71
2021/11/12 14:08:15;;;;;;;18.70;14.37;;;9.80;99.90;;;;;;5087641;28;20962;-71
2021/11/12 14:10:44;;;;;;;21.13;16.93;;;9.80;99.90;;;;;;5089475;28;20386;-71
2021/11/12 14:13:14;;;;;;;17.17;15.40;;;9.80;99.90;;;;;;5088100;28;20905;-71
2021/11/12 14:15:45;;;;;;;15.97;14.27;;;9.80;99.90;;;;;;5087472;28;20455;-70
2021/11/12 14:21:09;;;;;;;15.73;13.80;;;9.80;99.90;;;;;;5087654;28;20985;-71
2021/11/12 14:29:48;;;;;;;15.23;13.47;;;9.80;99.90;;;;;;5122879;27;20477;-72
2021/11/12 14:49:12;;;;;;;12.63;11.30;;;9.70;99.90;;;;;;5089721;28;20511;-71
2021/11/12 14:51:57;;;;;;;12.73;11.43;;;9.70;99.90;;;;;;5072368;28;20412;-71
2021/11/12 14:54:28;;;;;;;14.53;13.00;;;9.60;99.90;;;;;;5069738;28;20389;-70
2021/11/12 14:56:53;;;;;;;15.20;11.90;;;9.70;99.90;;;;;;5088516;28;20774;-71
2021/11/12 14:59:19;;;;;;;14.17;12.77;;;9.70;99.90;;;;;;5087680;28;20405;-71
2021/11/12 15:01:45;;;;;;;13.93;12.43;;;9.60;99.90;;;;;;5069838;28;20164;-70
2021/11/12 15:04:11;;;;;;;15.10;13.50;;;9.60;99.90;;;;;;5069299;28;20706;-71
2021/11/12 15:06:36;;;;;;;15.67;14.07;;;9.60;99.90;;;;;;5085938;28;20194;-72
2021/11/12 15:09:11;;;;;;;14.80;12.77;;;9.60;99.90;;;;;;5089502;28;20152;-71
2021/11/12 15:11:37;;;;;;;13.90;12.60;;;9.60;99.90;;;;;;5089309;28;20235;-71
2021/11/12 15:14:09;;;;;;;14.50;12.67;;;9.50;99.90;;;;;;5089435;28;20491;-71
2021/11/12 15:16:37;;;;;;;13.20;11.77;;;9.50;99.90;;;;;;5086757;28;20454;-71
2021/11/12 15:19:04;;;;;;;15.20;13.10;;;9.50;99.90;;;;;;5089258;28;20456;-70
2021/11/12 15:21:47;;;;;;;13.60;12.10;;;9.50;99.90;;;;;;5089672;28;20485;-71
2021/11/12 15:26:57;;;;;;;14.37;12.87;;;9.50;99.90;;;;;;5051180;28;20551;-71
2021/11/12 15:29:27;;;;;;;16.03;14.13;;;9.40;99.90;;;;;;5049397;28;20441;-70
2021/11/12 15:32:14;;;;;;;14.93;13.23;;;9.40;99.90;;;;;;5049702;28;20474;-70
2021/11/12 15:34:52;;;;;;;15.43;13.27;;;9.30;99.90;;;;;;5062712;28;20986;-70
2021/11/12 15:37:27;;;;;;;13.50;12.13;;;9.40;99.90;;;;;;5048707;28;20835;-70
2021/11/12 15:39:57;;;;;;;13.13;11.83;;;9.30;99.90;;;;;;5049219;28;20597;-70
2021/11/12 15:45:16;;;;;;;13.43;12.20;;;9.30;99.90;;;;;;5065787;28;20524;-71
2021/11/12 15:47:45;;;;;;;13.63;12.00;;;9.30;99.90;;;;;;5049655;28;20489;-70
2021/11/12 15:50:40;;;;;;;15.03;11.80;;;9.20;99.90;;;;;;5049366;28;20457;-71
2021/11/12 15:53:10;;;;;;;14.17;11.40;;;9.20;99.90;;;;;;5048736;28;20416;-71
2021/11/12 15:55:49;;;;;;;15.40;12.90;;;9.10;99.90;;;;;;5048928;28;20427;-70
2021/11/12 16:09:24;;;;;;;13.17;11.83;;;9.00;99.90;;;;;;5058343;28;20991;-69
2021/11/12 16:25:20;;;;;;;16.90;13.43;;;9.00;99.90;;;;;;5069541;28;20998;-70
2021/11/12 16:27:48;;;;;;;12.63;11.33;;;8.90;99.90;;;;;;5066494;28;20441;-71
2021/11/12 16:30:17;;;;;;;12.80;11.47;;;8.90;99.90;;;;;;5048976;28;20413;-70
2021/11/12 16:32:45;;;;;;;13.70;12.30;;;8.90;99.90;;;;;;5043646;28;20444;-71
2021/11/12 16:35:15;;;;;;;13.23;11.70;;;8.90;99.90;;;;;;5035444;28;20424;-70
2021/11/12 16:37:43;;;;;;;14.50;12.23;;;8.90;99.90;;;;;;5068876;28;20398;-71
2021/11/12 16:40:29;;;;;;;14.63;12.33;;;8.90;99.90;;;;;;5049772;28;20419;-71
2021/11/12 16:43:03;;;;;;;14.77;13.17;;;8.90;99.90;;;;;;5061931;28;20421;-71
2021/11/12 16:48:26;;;;;;;14.27;12.37;;;8.90;99.90;;;;;;5042940;28;20430;-70
2021/11/12 16:51:02;;;;;;;14.97;13.47;;;8.90;99.90;;;;;;5029685;28;20433;-72
2021/11/12 16:53:39;;;;;;;15.73;12.27;;;8.90;99.90;;;;;;5029344;28;20759;-70
2021/11/12 16:59:00;;;;;;;15.80;12.47;;;8.80;99.90;;;;;;5062103;28;20430;-72
2021/11/12 17:04:10;;;;;;;16.17;13.50;;;8.80;99.90;;;;;;5110475;27;20544;-71
2021/11/12 17:06:57;;;;;;;12.50;11.20;;;8.80;99.90;;;;;;5109804;28;20421;-71
2021/11/12 17:17:48;;;;;;;14.03;12.00;;;8.70;99.90;;;;;;5110408;27;20533;-70
2021/11/12 17:20:21;;;;;;;13.87;12.47;;;8.70;99.90;;;;;;5110534;28;20381;-70
2021/11/12 17:45:09;;;;;;;19.87;16.10;;;8.70;99.90;;;;;;5089038;28;21022;-70
2021/11/12 17:47:37;;;;;;;16.67;14.87;;;8.70;99.90;;;;;;5089718;28;20889;-70
2021/11/12 18:06:45;;;;;;;18.03;14.17;;;8.60;99.90;;;;;;5048765;28;20425;-71
2021/11/12 18:09:48;;;;;;;16.27;13.00;;;8.60;99.90;;;;;;5069265;28;20401;-71
2021/11/12 21:46:24;;;;;;;14.40;12.20;;;8.60;99.90;;;;;;5069577;28;20508;-71
2021/11/12 21:49:00;;;;;;;12.60;11.30;;;8.60;99.90;;;;;;5069559;28;20910;-72
2021/11/12 21:51:31;;;;;;;15.53;12.93;;;8.60;99.90;;;;;;5069327;28;20467;-70
2021/11/12 21:54:01;;;;;;;15.33;12.30;;;8.60;99.90;;;;;;5069506;28;20390;-71
2021/11/12 21:56:27;;;;;;;12.17;10.97;;;8.60;99.90;;;;;;5056266;28;20407;-71
2021/11/12 21:58:53;;;;;;;11.63;10.43;;;8.60;99.90;;;;;;5049485;28;20384;-70
2021/11/12 22:01:21;;;;;;;15.07;12.33;;;8.70;99.90;;;;;;5065989;28;20409;-70
2021/11/12 22:03:47;;;;;;;14.37;12.53;;;8.70;99.90;;;;;;5068984;28;20417;-71
2021/11/12 22:06:13;;;;;;;14.60;13.03;;;8.70;99.90;;;;;;5069618;28;20390;-71
2021/11/12 22:08:39;;;;;;;13.40;11.57;;;8.70;99.90;;;;;;5069373;28;20863;-71
2021/11/12 22:11:07;;;;;;;14.17;12.67;;;8.80;99.90;;;;;;5068591;28;20164;-72
2021/11/12 22:13:33;;;;;;;13.37;11.97;;;8.70;99.90;;;;;;5036183;28;20188;-71
2021/11/12 22:15:59;;;;;;;13.83;11.60;;;8.80;99.90;;;;;;5041485;28;20557;-71
2021/11/12 22:18:25;;;;;;;14.00;12.40;;;8.80;99.90;;;;;;5049133;28;20527;-71
2021/11/12 22:20:51;;;;;;;15.27;12.70;;;8.80;99.90;;;;;;5048993;28;20431;-71
2021/11/12 22:23:19;;;;;;;13.03;11.73;;;8.80;99.90;;;;;;5053938;28;20923;-72
2021/11/12 22:25:45;;;;;;;13.60;12.30;;;8.80;99.90;;;;;;5067712;28;20438;-71
2021/11/12 22:28:10;;;;;;;19.07;13.20;;;8.70;99.90;;;;;;5069084;28;20402;-71
2021/11/12 22:30:38;;;;;;;13.87;12.27;;;8.70;99.90;;;;;;5046322;28;20421;-71
2021/11/12 22:33:05;;;;;;;13.73;12.07;;;8.70;99.90;;;;;;5061338;28;20537;-71
2021/11/12 22:35:32;;;;;;;14.10;11.87;;;8.70;99.90;;;;;;5068774;28;20447;-71
2021/11/12 22:37:58;;;;;;;14.73;11.67;;;8.60;99.90;;;;;;5068583;28;20404;-70
2021/11/12 22:40:24;;;;;;;12.97;11.63;;;8.50;99.90;;;;;;5061368;28;20429;-70
2021/11/12 22:42:50;;;;;;;11.70;10.53;;;8.50;99.90;;;;;;5058647;28;20483;-71
2021/11/12 22:45:16;;;;;;;17.00;12.13;;;8.50;99.90;;;;;;5063794;28;20454;-72
2021/11/12 22:47:44;;;;;;;15.50;12.70;;;8.40;99.90;;;;;;5031069;28;20425;-71
2021/11/12 22:50:10;;;;;;;14.70;13.20;;;8.50;99.90;;;;;;5038048;28;20917;-70
2021/11/12 22:52:36;;;;;;;14.60;12.40;;;8.50;99.90;;;;;;5068611;28;20490;-71
2021/11/12 22:55:02;;;;;;;14.63;13.00;;;8.40;99.90;;;;;;5067977;28;20416;-71
2021/11/12 22:57:28;;;;;;;13.83;12.53;;;8.50;99.90;;;;;;5039711;28;20255;-71
2021/11/12 22:59:53;;;;;;;13.53;12.20;;;8.40;99.90;;;;;;5045095;28;21033;-70